Terminal Aerodrome Forecast
Issued by NWS

Home | Current Version | Previous Version | Text Only | Print | Product List | Glossary On
Versions: 1 2 3 4 5 6 7 8 9 10 11 12 13 14
252
FTUS45 KRIW 271320 AAA
TAFLND
TAF AMD
KLND 271320Z 2713/2812 20005KT P6SM SCT050 SCT150
     FM271500 29010G15KT P6SM VCSH BKN050
     FM271700 31011KT 5SM -SHRASN OVC025
     FM280200 02007KT 2SM -SN OVC025=

USA.gov is the U.S. government's official web portal to all federal, state and local government web resources and services.